OIHH  Hamadan Airport

Add Bookmark

Hamadan, Iran

Status IATA
Operational HDM
Latitude Longitude
34° 52' 9" N 48° 33' 9" E
34.869202 48.552502
Local (DST + 5) UTC (GMT + 4)
Nov 27, 2014 07:41 Nov 27, 2014 04:11
Sunrise-Sunset Local UTC
Begin Civil Twilight 06:32 03:02
Sunrise 07:00 03:30
Sunset 05:06 13:36
End Civil Twilight 05:34 14:04

Current Weather

METAR Observed VFR
OIHH 261100Z 14004KT 9999 FEW035CB BKN040 09/00 Q1017 Wed, Nov 26, 2014 @ 11:00 UTC
(17 Hours, 11 Minutes ago)
Visual Flight Rules
Wind Visibility Clouds Conditions
140° at 4 knots (7 kph) 10 km or more
  • Few at 3,500' AGL
  • Broken at 4,000' AGL
  • No significant weather
Temperatures Readings Precipitation
Current Temp 9°C (48°F)
Dewpoint 0°C (32°F)
Humidity 54%
Altimeter 30.03"Hg
Sea Level Pressure 1017mb
Field Elevation 5764.44'
None Recorded

24 Hour Weather History

Loading
-

24 Hour Weather Graphs

Loading
-

CheckWX.com is intended as a tool to help pilots better visualize weather data. It is not intended as a substitute for an official weather briefing obtained from a Flight Service Station. CheckWX.com does not meet the FAA requirements for an official pre-flight weather briefing. Therefore, it's important that pilots still call and obtain an official FSS pre-flight weather briefing.